createdAt,value
2023-02-25T00:02:02.962Z,99377.56
2023-02-25T00:06:55.722Z,99371.63
2023-02-25T00:11:47.309Z,99375.84
2023-02-25T00:16:38.987Z,99380.28
2023-02-25T00:21:30.702Z,99385.06
2023-02-25T00:26:23.695Z,99377.81
2023-02-25T00:31:21.399Z,99376.03
2023-02-25T00:36:19.036Z,99378.56
2023-02-25T00:41:11.999Z,99376.94
2023-02-25T00:46:03.802Z,99381.38
2023-02-25T00:50:55.539Z,99385.59
2023-02-25T00:55:47.141Z,99380.94
2023-02-25T01:00:51.262Z,99371.41
2023-02-25T01:05:43.932Z,99389.66
2023-02-25T01:10:35.800Z,99398.22
2023-02-25T01:15:29.981Z,99373.31
2023-02-25T01:20:24.252Z,99370.28
2023-02-25T01:25:17.759Z,99385.84
2023-02-25T01:30:10.657Z,99380.84
2023-02-25T01:35:02.835Z,99383.38
2023-02-25T01:39:54.601Z,99393.44
2023-02-25T01:45:14.197Z,99388.63
2023-02-25T01:50:07.524Z,99388.28
2023-02-25T01:54:59.611Z,99398.34
2023-02-25T01:59:53.237Z,99396.66
2023-02-25T02:04:50.465Z,99390.66
2023-02-25T02:09:56.125Z,99393.50
2023-02-25T02:14:47.922Z,99396.19
2023-02-25T02:19:48.822Z,99394.50
2023-02-25T02:24:49.554Z,99409.75
2023-02-25T02:30:26.655Z,99409.09
2023-02-25T02:35:31.605Z,99403.63
2023-02-25T02:40:41.378Z,99413.34
2023-02-25T02:45:51.328Z,99401.31
2023-02-25T02:50:47.222Z,99397.81
2023-02-25T02:55:47.881Z,99396.66
2023-02-25T03:00:45.457Z,99396.50
2023-02-25T03:05:41.427Z,99402.31
2023-02-25T03:10:34.470Z,99401.66
2023-02-25T03:15:29.703Z,99394.50
2023-02-25T03:20:28.292Z,99401.84
2023-02-25T03:25:47.977Z,99396.66
2023-02-25T03:30:48.736Z,99409.72
2023-02-25T03:35:42.553Z,99411.38
2023-02-25T03:40:36.352Z,99417.06
2023-02-25T03:45:28.879Z,99407.91
2023-02-25T03:50:27.292Z,99415.59
2023-02-25T03:55:19.355Z,99412.41
2023-02-25T04:00:22.901Z,99421.09
2023-02-25T04:05:16.533Z,99438.50
2023-02-25T04:10:10.589Z,99457.22
2023-02-25T04:15:02.627Z,99453.50
2023-02-25T04:19:54.503Z,99455.84
2023-02-25T04:24:46.174Z,99456.88
2023-02-25T04:29:37.927Z,99461.38
2023-02-25T04:34:29.539Z,99457.19
2023-02-25T04:39:23.468Z,99457.69
2023-02-25T04:44:15.825Z,99476.91
2023-02-25T04:49:09.924Z,99467.75
2023-02-25T04:54:01.715Z,99465.91
2023-02-25T04:58:54.163Z,99466.25
2023-02-25T05:03:57.216Z,99457.56
2023-02-25T05:08:49.372Z,99471.75
2023-02-25T05:13:41.335Z,99464.56
2023-02-25T05:18:36.433Z,99472.72
2023-02-25T05:23:28.051Z,99480.72
2023-02-25T05:28:20.037Z,99482.91
2023-02-25T05:33:13.781Z,99479.88
2023-02-25T05:38:05.405Z,99484.72
2023-02-25T05:42:57.036Z,99494.91
2023-02-25T05:47:49.222Z,99500.41
2023-02-25T05:52:40.972Z,99498.88
2023-02-25T05:57:32.711Z,99506.41
2023-02-25T06:02:24.334Z,99507.38
2023-02-25T06:07:15.993Z,99510.72
2023-02-25T06:12:08.350Z,99516.75
2023-02-25T06:17:00.209Z,99524.63
2023-02-25T06:21:54.844Z,99524.78
2023-02-25T06:26:46.576Z,99527.59
2023-02-25T06:31:38.298Z,99529.97
2023-02-25T06:36:30.082Z,99530.28
2023-02-25T06:41:22.677Z,99530.28
2023-02-25T06:46:15.241Z,99540.50
2023-02-25T06:51:09.633Z,99551.53
2023-02-25T06:56:02.701Z,99553.38
2023-02-25T07:00:54.385Z,99544.03
2023-02-25T07:05:46.132Z,99553.38
2023-02-25T07:10:40.890Z,99549.56
2023-02-25T07:15:33.042Z,99546.06
2023-02-25T07:20:25.749Z,99555.06
2023-02-25T07:25:20.404Z,99563.91
2023-02-25T07:30:16.044Z,99576.63
2023-02-25T07:35:10.951Z,99582.13
2023-02-25T07:40:03.602Z,99577.44
2023-02-25T07:44:55.361Z,99576.78
2023-02-25T07:49:48.790Z,99590.19
2023-02-25T07:54:41.587Z,99586.19
2023-02-25T07:59:34.622Z,99591.72
2023-02-25T08:04:27.570Z,99584.88
2023-02-25T08:09:19.343Z,99608.09
2023-02-25T08:14:11.507Z,99609.97
2023-02-25T08:19:04.626Z,99611.13
2023-02-25T08:23:56.816Z,99616.66
2023-02-25T08:28:49.577Z,99625.38
2023-02-25T08:33:43.921Z,99624.53
2023-02-25T08:38:38.430Z,99624.75
2023-02-25T08:43:30.073Z,99620.38
2023-02-25T08:48:22.303Z,99624.72
2023-02-25T08:53:14.034Z,99636.47
2023-02-25T08:58:07.407Z,99625.25
2023-02-25T09:03:00.836Z,99631.59
2023-02-25T09:07:52.979Z,99629.75
2023-02-25T09:12:45.430Z,99631.06
2023-02-25T09:17:38.405Z,99635.22
2023-02-25T09:22:33.154Z,99634.97
2023-02-25T09:27:24.743Z,99617.97
2023-02-25T09:32:20.049Z,99624.63
2023-02-25T09:37:13.620Z,99633.47
2023-02-25T09:42:11.431Z,99641.34
2023-02-25T09:47:15.330Z,99649.53
2023-02-25T09:52:18.777Z,99641.28
2023-02-25T09:57:16.160Z,99647.50
2023-02-25T10:02:20.675Z,99638.63
2023-02-25T10:07:28.958Z,99650.16
2023-02-25T10:12:51.133Z,99650.75
2023-02-25T10:18:11.482Z,99649.41
2023-02-25T10:23:24.736Z,99645.03
2023-02-25T10:28:18.130Z,99651.28
2023-02-25T10:33:24.464Z,99661.13
2023-02-25T10:38:16.089Z,99662.56
2023-02-25T10:43:21.546Z,99661.03
2023-02-25T10:48:20.811Z,99662.78
2023-02-25T10:53:19.085Z,99651.00
2023-02-25T10:58:29.067Z,99661.59
2023-02-25T11:03:24.456Z,99652.53
2023-02-25T11:08:27.439Z,99661.22
2023-02-25T11:13:29.118Z,99660.22
2023-02-25T11:18:23.935Z,99673.00
2023-02-25T11:23:23.699Z,99670.50
2023-02-25T11:28:33.198Z,99660.91
2023-02-25T11:33:27.277Z,99661.91
2023-02-25T11:38:25.684Z,99671.91
2023-02-25T11:43:18.897Z,99662.50
2023-02-25T11:48:19.920Z,99653.72
2023-02-25T11:53:42.733Z,99662.31
2023-02-25T11:59:18.750Z,99647.56
2023-02-25T12:04:36.321Z,99650.44
2023-02-25T12:10:11.036Z,99649.81
2023-02-25T12:15:11.795Z,99648.16
2023-02-25T12:20:18.370Z,99644.56
2023-02-25T12:25:42.232Z,99646.56
2023-02-25T12:30:41.360Z,99647.13
2023-02-25T12:36:04.697Z,99648.44
2023-02-25T12:41:30.283Z,99648.66
2023-02-25T12:46:59.028Z,99642.56
2023-02-25T12:52:17.444Z,99643.03
2023-02-25T12:57:34.282Z,99642.47
2023-02-25T13:02:35.032Z,99642.09
2023-02-25T13:07:44.650Z,99645.00
2023-02-25T13:13:09.665Z,99646.41
2023-02-25T13:18:48.653Z,99648.84
2023-02-25T13:24:09.113Z,99642.06
2023-02-25T13:29:16.419Z,99640.94
2023-02-25T13:34:26.901Z,99633.19
2023-02-25T13:39:46.396Z,99641.88
2023-02-25T13:45:01.100Z,99629.13
2023-02-25T13:50:11.338Z,99630.75
2023-02-25T13:55:27.634Z,99622.84
2023-02-25T14:00:45.590Z,99614.84
2023-02-25T14:06:01.977Z,99624.09
2023-02-25T14:11:02.650Z,99630.25
2023-02-25T14:16:07.642Z,99637.22
2023-02-25T14:21:08.526Z,99637.94
2023-02-25T14:26:42.042Z,99644.09
2023-02-25T14:32:02.876Z,99640.59
2023-02-25T14:37:07.446Z,99647.50
2023-02-25T14:42:19.938Z,99658.47
2023-02-25T14:47:20.829Z,99662.47
2023-02-25T14:52:34.136Z,99665.03
2023-02-25T14:57:51.498Z,99661.03
2023-02-25T15:03:08.494Z,99661.91
2023-02-25T15:08:20.720Z,99666.75
2023-02-25T15:13:30.633Z,99657.53
2023-02-25T15:18:40.453Z,99674.91
2023-02-25T15:23:50.698Z,99680.38
2023-02-25T15:28:45.122Z,99688.09
2023-02-25T15:33:42.222Z,99690.75
2023-02-25T15:38:55.666Z,99685.03
2023-02-25T15:43:47.622Z,99678.91
2023-02-25T15:48:42.183Z,99682.59
2023-02-25T15:53:40.314Z,99688.19
2023-02-25T15:58:31.920Z,99686.06
2023-02-25T16:03:32.348Z,99699.44
2023-02-25T16:08:35.409Z,99691.72
2023-02-25T16:13:31.610Z,99708.25
2023-02-25T16:18:35.570Z,99699.06
2023-02-25T16:23:28.652Z,99697.56
2023-02-25T16:28:31.003Z,99714.25
2023-02-25T16:33:51.939Z,99717.13
2023-02-25T16:38:55.665Z,99720.94
2023-02-25T16:43:47.425Z,99712.69
2023-02-25T16:48:51.330Z,99717.44
2023-02-25T16:53:45.537Z,99720.88
2023-02-25T16:58:37.273Z,99730.13
2023-02-25T17:03:33.214Z,99730.69
2023-02-25T17:08:24.984Z,99736.44
2023-02-25T17:13:23.623Z,99749.13
2023-02-25T17:18:26.752Z,99744.28
2023-02-25T17:23:18.733Z,99737.44
2023-02-25T17:28:23.006Z,99756.53
2023-02-25T17:33:27.034Z,99763.09
2023-02-25T17:38:22.220Z,99777.78
2023-02-25T17:43:23.288Z,99782.97
2023-02-25T17:48:27.722Z,99791.69
2023-02-25T17:53:46.087Z,99803.28
2023-02-25T17:58:38.069Z,99811.69
2023-02-25T18:03:33.062Z,99820.16
2023-02-25T18:08:51.734Z,99824.84
2023-02-25T18:13:43.355Z,99840.69
2023-02-25T18:18:35.457Z,99847.63
2023-02-25T18:23:31.104Z,99854.88
2023-02-25T18:28:23.033Z,99853.53
2023-02-25T18:33:15.542Z,99863.34
2023-02-25T18:38:09.834Z,99865.38
2023-02-25T18:43:01.569Z,99871.94
2023-02-25T18:47:54.999Z,99868.94
2023-02-25T18:52:47.167Z,99872.84
2023-02-25T18:57:38.900Z,99888.09
2023-02-25T19:02:36.737Z,99891.81
2023-02-25T19:07:31.779Z,99898.03
2023-02-25T19:12:25.234Z,99891.47
2023-02-25T19:17:17.297Z,99888.97
2023-02-25T19:22:11.011Z,99894.69
2023-02-25T19:27:02.830Z,99896.50
2023-02-25T19:31:54.597Z,99904.75
2023-02-25T19:36:46.304Z,99900.25
2023-02-25T19:41:38.972Z,99907.00
2023-02-25T19:46:30.782Z,99909.72
2023-02-25T19:51:22.414Z,99916.31
2023-02-25T19:56:14.151Z,99914.00
2023-02-25T20:01:08.406Z,99922.09
2023-02-25T20:06:08.409Z,99936.56
2023-02-25T20:11:00.061Z,99939.91
2023-02-25T20:15:51.714Z,99943.44
2023-02-25T20:20:45.348Z,99950.66
2023-02-25T20:25:37.050Z,99947.13
2023-02-25T20:30:28.752Z,99961.91
2023-02-25T20:35:21.771Z,99964.09
2023-02-25T20:40:13.642Z,99977.81
2023-02-25T20:45:06.393Z,99971.63
2023-02-25T20:49:59.001Z,99979.53
2023-02-25T20:54:50.689Z,99976.84
2023-02-25T20:59:42.922Z,99995.28
2023-02-25T21:04:34.605Z,100001.66
2023-02-25T21:09:26.614Z,100005.19
2023-02-25T21:14:18.243Z,100030.16
2023-02-25T21:19:09.942Z,100040.56
2023-02-25T21:24:01.537Z,100038.88
2023-02-25T21:28:53.238Z,100035.53
2023-02-25T21:33:44.932Z,100047.09
2023-02-25T21:38:37.550Z,100047.91
2023-02-25T21:43:29.215Z,100039.66
2023-02-25T21:48:21.471Z,100041.34
2023-02-25T21:53:13.373Z,100048.03
2023-02-25T21:58:05.158Z,100047.69
2023-02-25T22:02:56.947Z,100053.53
2023-02-25T22:07:48.673Z,100049.19
2023-02-25T22:12:40.410Z,100052.88
2023-02-25T22:17:32.133Z,100051.84
2023-02-25T22:22:23.742Z,100055.41
2023-02-25T22:27:15.432Z,100060.94
2023-02-25T22:32:07.238Z,100075.00
2023-02-25T22:36:59.181Z,100074.34
2023-02-25T22:41:50.889Z,100069.97
2023-02-25T22:46:42.787Z,100078.84
2023-02-25T22:51:45.861Z,100092.56
2023-02-25T22:56:37.663Z,100084.34
2023-02-25T23:01:29.842Z,100095.88
2023-02-25T23:06:34.347Z,100098.19
2023-02-25T23:11:35.405Z,100103.19
2023-02-25T23:16:36.404Z,100104.13
2023-02-25T23:21:29.531Z,100105.94
2023-02-25T23:26:26.776Z,100105.56
2023-02-25T23:31:24.142Z,100116.06
2023-02-25T23:36:16.570Z,100116.69
2023-02-25T23:41:08.721Z,100113.66
2023-02-25T23:46:05.529Z,100119.09
2023-02-25T23:50:57.665Z,100122.25
2023-02-25T23:55:49.453Z,100137.31
